Ever Beauty — D5MZ4 — position and weather

sailwx.info

Track history (hours):
 
Tides and Currents Weather Stations Pressure Air Temp Water Temp Dewpoint Dewpoint Depression Visibility Wind Speed Wind Dir Waves Ship Positions

Ever Beauty

Last reported at 2018-Jun-02 18:55 UTC. Time now 2018-Jul-23 13:45 UTC.
Position N 30°59' E 122°31'.
Warning: this ship's position is 50 days out of date.

Length 295 m; draft 8.1 m.

Type: Cargo ship. MMSI: 636017848.

Date/timePositionNaut miles runAvg speedWind from/ knotsBaromVisibWave heightAir tempDewpointWater temp
2018-Jun-02 18:55N 30°59' E 122°31'613.0
2018-Jun-02 18:26N 31°00' E 122°24'613.0
2018-Jun-02 18:00N 31°02' E 122°17'5 9.6
2018-Jun-02 17:27N 31°03' E 122°12'4 8.7
2018-Jun-02 17:00N 31°03' E 122°07'510.1
2018-Jun-02 16:30N 31°05' E 122°01'4 7.8
2018-Jun-02 16:00N 31°07' E 121°57'5 9.7
2018-Jun-02 15:28N 31°10' E 121°52'512.0
2018-Jun-02 15:00N 31°14' E 121°48'1012.1
2018-Jun-02 14:12N 31°21' E 121°40'211.5
2018-Jun-02 13:59N 31°22' E 121°38'611.7
2018-Jun-02 13:30N 31°25' E 121°32'3 7.0
2018-Jun-02 13:01N 31°27' E 121°29'4 7.5
2018-Jun-02 12:30N 31°30' E 121°26'510.4
2018-Jun-02 12:00N 31°32' E 121°21'510.1
2018-Jun-02 11:30N 31°36' E 121°17'4 9.0
2018-Jun-02 11:00N 31°39' E 121°13'611.4
2018-Jun-02 10:30N 31°43' E 121°07'610.9
2018-Jun-02 09:55N 31°46' E 121°01'2710.4
2018-Jun-02 07:19N 32°00' E 120°34'413.3
2018-Jun-02 07:00N 32°02' E 120°30'7 0.2
2018-May-31 07:07N 31°60' E 120°22'1 7.8
2018-May-31 06:56N 32°00' E 120°23'6 8.4
2018-May-31 06:14N 32°02' E 120°30'210.0
2018-May-31 06:00N 32°01' E 120°32'80 3.0
2018-May-30 02:58N 31°17' E 121°51'611.3
2018-May-30 02:26N 31°15' E 121°58'510.6
2018-May-30 02:00N 31°14' E 122°03'610.4
2018-May-30 01:28N 31°12' E 122°09'510.2
2018-May-30 00:58N 31°09' E 122°13'4 8.6
2018-May-30 00:30N 31°07' E 122°17'510.0
2018-May-30 00:00N 31°06' E 122°23'4 8.9
2018-May-29 23:30N 31°08' E 122°28'12 1.3
2018-May-29 14:28N 31°15' E 122°39'0 0.0
2018-May-29 13:55N 31°15' E 122°39'0 0.1
2018-May-29 13:28N 31°15' E 122°39'0 0.1
2018-May-29 12:58N 31°14' E 122°39'0 0.1
2018-May-29 11:31N 31°14' E 122°39'0 0.1
2018-May-29 11:10N 31°14' E 122°39'0 0.1
2018-May-29 10:46N 31°14' E 122°39'0 0.1
2018-May-29 10:22N 31°14' E 122°39'0 0.1
2018-May-29 09:28N 31°14' E 122°39'0 0.1
2018-May-29 08:46N 31°14' E 122°39'0 0.0
2018-May-29 08:22N 31°14' E 122°39'0 0.0
2018-May-29 07:10N 31°14' E 122°39'0 0.3
2018-May-29 06:52N 31°14' E 122°40'0 0.0
2018-May-28 22:16N 31°14' E 122°39'  
Track history (hours):
 
Tides and Currents Weather Stations Pressure Air Temp Water Temp Dewpoint Dewpoint Depression Visibility Wind Speed Wind Dir Waves Ship Positions

Ever Beauty

Last reported at 2018-Jun-02 18:55 UTC. Time now 2018-Jul-23 13:45 UTC.
Position N 30°59' E 122°31'.
Warning: this ship's position is 50 days out of date.

Length 295 m; draft 8.1 m.

Type: Cargo ship. MMSI: 636017848.

Date/timePositionNaut miles runAvg speedWind from/ knotsBaromVisibWave heightAir tempDewpointWater temp
2018-Jun-02 18:55N 30°59' E 122°31'613.0
2018-Jun-02 18:26N 31°00' E 122°24'613.0
2018-Jun-02 18:00N 31°02' E 122°17'5 9.6
2018-Jun-02 17:27N 31°03' E 122°12'4 8.7
2018-Jun-02 17:00N 31°03' E 122°07'510.1
2018-Jun-02 16:30N 31°05' E 122°01'4 7.8
2018-Jun-02 16:00N 31°07' E 121°57'5 9.7
2018-Jun-02 15:28N 31°10' E 121°52'512.0
2018-Jun-02 15:00N 31°14' E 121°48'1012.1
2018-Jun-02 14:12N 31°21' E 121°40'211.5
2018-Jun-02 13:59N 31°22' E 121°38'611.7
2018-Jun-02 13:30N 31°25' E 121°32'3 7.0
2018-Jun-02 13:01N 31°27' E 121°29'4 7.5
2018-Jun-02 12:30N 31°30' E 121°26'510.4
2018-Jun-02 12:00N 31°32' E 121°21'510.1
2018-Jun-02 11:30N 31°36' E 121°17'4 9.0
2018-Jun-02 11:00N 31°39' E 121°13'611.4
2018-Jun-02 10:30N 31°43' E 121°07'610.9
2018-Jun-02 09:55N 31°46' E 121°01'2710.4
2018-Jun-02 07:19N 32°00' E 120°34'413.3
2018-Jun-02 07:00N 32°02' E 120°30'7 0.2
2018-May-31 07:07N 31°60' E 120°22'1 7.8
2018-May-31 06:56N 32°00' E 120°23'6 8.4
2018-May-31 06:14N 32°02' E 120°30'210.0
2018-May-31 06:00N 32°01' E 120°32'80 3.0
2018-May-30 02:58N 31°17' E 121°51'611.3
2018-May-30 02:26N 31°15' E 121°58'510.6
2018-May-30 02:00N 31°14' E 122°03'610.4
2018-May-30 01:28N 31°12' E 122°09'510.2
2018-May-30 00:58N 31°09' E 122°13'4 8.6
2018-May-30 00:30N 31°07' E 122°17'510.0
2018-May-30 00:00N 31°06' E 122°23'4 8.9
2018-May-29 23:30N 31°08' E 122°28'12 1.3
2018-May-29 14:28N 31°15' E 122°39'0 0.0
2018-May-29 13:55N 31°15' E 122°39'0 0.1
2018-May-29 13:28N 31°15' E 122°39'0 0.1
2018-May-29 12:58N 31°14' E 122°39'0 0.1
2018-May-29 11:31N 31°14' E 122°39'0 0.1
2018-May-29 11:10N 31°14' E 122°39'0 0.1
2018-May-29 10:46N 31°14' E 122°39'0 0.1
2018-May-29 10:22N 31°14' E 122°39'0 0.1
2018-May-29 09:28N 31°14' E 122°39'0 0.1
2018-May-29 08:46N 31°14' E 122°39'0 0.0
2018-May-29 08:22N 31°14' E 122°39'0 0.0
2018-May-29 07:10N 31°14' E 122°39'0 0.3
2018-May-29 06:52N 31°14' E 122°40'0 0.0
2018-May-28 22:16N 31°14' E 122°39'  

Dump ship's entire track history